Time;durP1;ratioP1;P1;durP2;ratioP2;P2;SDS_P1;SDS_P2;PMS_P1;PMS_P2;Temp;Humidity;BMP_temperature;BMP_pressure;BME280_temperature;BME280_humidity;BME280_pressure;Samples;Min_cycle;Max_cycle;Signal;HPM_P1;HPM_P2
2022/04/29 00:00:17;;;;;;;6.18;5.57;;;8.50;92.20;;;;;;4160952;28;20189;-70
2022/04/29 00:02:21;;;;;;;5.75;4.97;;;8.40;92.50;;;;;;4159164;28;20103;-71
2022/04/29 00:04:24;;;;;;;6.65;5.53;;;8.40;92.50;;;;;;4162850;28;20661;-71
2022/04/29 00:06:26;;;;;;;6.03;5.13;;;8.40;92.50;;;;;;4161467;28;20785;-70
2022/04/29 00:08:28;;;;;;;7.00;5.72;;;8.40;92.70;;;;;;4157584;28;20177;-70
2022/04/29 00:10:30;;;;;;;7.15;5.78;;;8.40;92.80;;;;;;4161197;28;20062;-73
2022/04/29 00:12:33;;;;;;;5.53;5.13;;;8.40;92.50;;;;;;4158907;28;20104;-70
2022/04/29 00:14:35;;;;;;;5.50;5.10;;;8.40;92.60;;;;;;4158853;28;20070;-70
2022/04/29 00:16:37;;;;;;;6.75;6.07;;;8.30;92.90;;;;;;4159247;28;20058;-70
2022/04/29 00:18:39;;;;;;;7.38;5.50;;;8.10;93.60;;;;;;4160176;28;20100;-70
2022/04/29 00:20:40;;;;;;;7.38;5.38;;;8.00;93.50;;;;;;4158332;28;20061;-70
2022/04/29 00:22:44;;;;;;;6.82;5.93;;;8.00;93.70;;;;;;4158293;28;20153;-70
2022/04/29 00:24:46;;;;;;;6.78;4.63;;;8.00;93.90;;;;;;4158674;28;20058;-70
2022/04/29 00:26:47;;;;;;;6.32;5.72;;;7.90;94.10;;;;;;4156739;28;20077;-70
2022/04/29 00:28:49;;;;;;;7.35;5.38;;;7.90;94.00;;;;;;4159322;28;20879;-70
2022/04/29 00:30:51;;;;;;;6.20;4.88;;;7.90;94.20;;;;;;4158207;28;20161;-71
2022/04/29 00:32:52;;;;;;;5.18;4.78;;;7.90;94.20;;;;;;4162262;28;20050;-71
2022/04/29 00:34:54;;;;;;;7.32;5.72;;;7.90;94.40;;;;;;4158735;28;20054;-70
2022/04/29 00:36:56;;;;;;;5.82;4.82;;;7.90;94.30;;;;;;4154697;28;20062;-70
2022/04/29 00:38:58;;;;;;;5.30;4.93;;;8.00;94.30;;;;;;4160116;28;20057;-70
2022/04/29 00:40:59;;;;;;;5.28;4.75;;;8.00;94.20;;;;;;4152525;28;20869;-70
2022/04/29 00:43:01;;;;;;;6.18;5.15;;;8.10;94.00;;;;;;4152082;28;20170;-70
2022/04/29 00:45:03;;;;;;;7.10;5.13;;;8.10;94.00;;;;;;4154988;28;20065;-70
2022/04/29 00:47:08;;;;;;;7.38;5.38;;;8.10;93.90;;;;;;4153873;28;20893;-70
2022/04/29 00:49:12;;;;;;;6.30;5.68;;;8.10;94.00;;;;;;4152689;28;20046;-70
2022/04/29 00:51:14;;;;;;;6.03;5.00;;;8.10;93.90;;;;;;4151192;28;20093;-71
2022/04/29 00:53:18;;;;;;;6.28;5.25;;;8.00;94.00;;;;;;4152701;28;20176;-71
2022/04/29 00:55:22;;;;;;;5.78;5.15;;;8.00;94.10;;;;;;4153285;28;20059;-71
2022/04/29 00:57:31;;;;;;;5.00;4.60;;;8.00;94.10;;;;;;4153118;28;20754;-71
2022/04/29 00:59:42;;;;;;;6.05;5.40;;;8.00;94.20;;;;;;4151995;28;20173;-71
2022/04/29 01:01:45;;;;;;;7.30;5.28;;;8.00;94.00;;;;;;4155273;28;20058;-72
2022/04/29 01:03:49;;;;;;;5.97;5.35;;;8.00;94.10;;;;;;4154901;28;20841;-72
2022/04/29 01:05:51;;;;;;;5.90;5.40;;;8.00;94.20;;;;;;4161947;28;20062;-71
2022/04/29 01:07:53;;;;;;;5.82;5.32;;;7.90;94.20;;;;;;4154926;28;20889;-72
2022/04/29 01:09:55;;;;;;;5.78;5.22;;;7.90;94.10;;;;;;4157256;28;20058;-72
2022/04/29 01:11:57;;;;;;;5.72;5.18;;;7.90;94.10;;;;;;4154266;28;20053;-71
2022/04/29 01:13:59;;;;;;;6.93;5.30;;;7.80;94.10;;;;;;4155786;28;21260;-72
2022/04/29 01:16:01;;;;;;;6.00;5.47;;;7.70;94.80;;;;;;4154133;28;20089;-71
2022/04/29 01:18:12;;;;;;;6.82;6.22;;;7.70;94.90;;;;;;4157232;28;20058;-71
2022/04/29 01:20:15;;;;;;;6.13;4.93;;;7.70;94.70;;;;;;4155158;28;20947;-72
2022/04/29 01:22:17;;;;;;;6.50;5.82;;;7.60;95.00;;;;;;4155846;28;20062;-71
2022/04/29 01:24:19;;;;;;;9.80;6.90;;;7.50;95.30;;;;;;4155745;28;20133;-72
2022/04/29 01:26:21;;;;;;;11.88;7.68;;;7.50;95.30;;;;;;4157159;28;20165;-71
2022/04/29 01:28:24;;;;;;;15.32;9.55;;;7.60;95.40;;;;;;4157663;28;20116;-72
2022/04/29 01:30:25;;;;;;;8.38;7.50;;;7.50;95.50;;;;;;4159087;28;20184;-72
2022/04/29 01:32:30;;;;;;;8.88;6.53;;;7.50;95.50;;;;;;4158318;28;20164;-71
2022/04/29 01:34:32;;;;;;;11.10;8.63;;;7.50;95.30;;;;;;4159350;28;20241;-71
2022/04/29 01:36:33;;;;;;;11.50;8.63;;;7.60;95.30;;;;;;4158121;28;20104;-71
2022/04/29 01:38:37;;;;;;;17.58;10.13;;;7.60;95.20;;;;;;4156703;28;20826;-71
2022/04/29 01:40:39;;;;;;;22.27;12.63;;;7.60;95.10;;;;;;4157480;28;20098;-71
2022/04/29 01:42:42;;;;;;;9.63;7.80;;;7.60;95.20;;;;;;4158692;28;20094;-71
2022/04/29 01:44:45;;;;;;;6.82;5.70;;;7.60;95.00;;;;;;4159673;28;20972;-71
2022/04/29 01:46:47;;;;;;;7.03;6.32;;;7.60;95.00;;;;;;4158916;28;20165;-72
2022/04/29 01:48:49;;;;;;;22.08;15.02;;;7.60;95.10;;;;;;4155190;28;20877;-72
2022/04/29 01:50:50;;;;;;;32.13;18.13;;;7.60;95.00;;;;;;4162973;28;20097;-71
2022/04/29 01:52:52;;;;;;;23.70;14.40;;;7.50;95.00;;;;;;4160846;28;20107;-71
2022/04/29 01:54:54;;;;;;;23.58;14.80;;;7.50;95.10;;;;;;4155013;28;20142;-71
2022/04/29 01:56:56;;;;;;;27.77;16.92;;;7.40;95.30;;;;;;4152940;28;20973;-72
2022/04/29 01:58:58;;;;;;;41.85;23.10;;;7.40;95.60;;;;;;4156555;28;20172;-71
2022/04/29 02:01:00;;;;;;;42.78;22.30;;;7.40;95.70;;;;;;4157533;28;20065;-71
2022/04/29 02:03:02;;;;;;;27.45;16.25;;;7.40;95.60;;;;;;4161975;28;20181;-72
2022/04/29 02:05:04;;;;;;;25.83;17.95;;;7.30;95.80;;;;;;4150856;28;20065;-72
2022/04/29 02:07:07;;;;;;;37.17;21.92;;;7.40;95.80;;;;;;4151175;28;20176;-72
2022/04/29 02:09:08;;;;;;;37.38;21.52;;;7.30;95.80;;;;;;4150319;28;20507;-72
2022/04/29 02:11:10;;;;;;;28.15;17.98;;;7.30;96.10;;;;;;4152925;28;20093;-72
2022/04/29 02:13:13;;;;;;;30.40;19.25;;;7.40;95.90;;;;;;4156343;28;20165;-72
2022/04/29 02:15:15;;;;;;;36.55;20.67;;;7.40;95.90;;;;;;4149749;28;20149;-72
2022/04/29 02:17:16;;;;;;;54.13;29.35;;;7.30;95.90;;;;;;4152751;28;20098;-72
2022/04/29 02:19:18;;;;;;;28.35;17.02;;;7.40;96.00;;;;;;4156275;28;20081;-72
2022/04/29 02:21:21;;;;;;;21.02;14.55;;;7.40;95.70;;;;;;4152007;28;20112;-72
2022/04/29 02:23:23;;;;;;;23.75;15.90;;;7.40;95.70;;;;;;4151740;28;20101;-72
2022/04/29 02:25:24;;;;;;;19.50;13.13;;;7.30;95.80;;;;;;4154958;28;20098;-72
2022/04/29 02:27:26;;;;;;;25.02;16.58;;;7.30;95.90;;;;;;4156717;28;20132;-72
2022/04/29 02:29:28;;;;;;;26.67;19.15;;;7.30;96.00;;;;;;4154238;28;20054;-72
2022/04/29 02:31:30;;;;;;;52.13;32.15;;;7.30;96.10;;;;;;4153755;28;20944;-72
2022/04/29 02:33:32;;;;;;;33.28;23.88;;;7.30;96.00;;;;;;4154890;28;20058;-72
2022/04/29 02:35:34;;;;;;;23.88;16.02;;;7.30;95.90;;;;;;4157141;28;20090;-72
2022/04/29 02:37:35;;;;;;;19.58;14.30;;;7.30;95.90;;;;;;4158806;28;20094;-72
2022/04/29 02:39:37;;;;;;;16.73;11.40;;;7.20;95.90;;;;;;4155016;28;20062;-72
2022/04/29 02:41:40;;;;;;;20.42;13.48;;;7.30;95.70;;;;;;4153671;28;20054;-72
2022/04/29 02:43:42;;;;;;;14.40;12.30;;;7.10;95.90;;;;;;4157460;28;20087;-72
2022/04/29 02:45:44;;;;;;;19.00;12.15;;;7.10;96.20;;;;;;4155927;28;20181;-72
2022/04/29 02:47:45;;;;;;;14.95;11.98;;;7.00;96.40;;;;;;4156649;28;20058;-72
2022/04/29 02:49:48;;;;;;;11.82;10.63;;;6.90;96.80;;;;;;4156360;28;20157;-72
2022/04/29 02:51:49;;;;;;;9.55;8.65;;;6.90;97.00;;;;;;4157732;28;20145;-72
2022/04/29 02:53:51;;;;;;;12.15;9.77;;;6.90;97.10;;;;;;4157548;28;20066;-72
2022/04/29 02:55:53;;;;;;;8.68;7.93;;;6.90;97.20;;;;;;4157022;28;20062;-72
2022/04/29 02:57:54;;;;;;;7.70;7.00;;;6.80;97.30;;;;;;4160161;28;20262;-72
2022/04/29 02:59:56;;;;;;;8.82;7.97;;;6.80;97.50;;;;;;4156798;28;20062;-72
2022/04/29 03:01:58;;;;;;;8.93;7.72;;;6.90;97.40;;;;;;4159539;28;20173;-73
2022/04/29 03:04:00;;;;;;;9.25;7.55;;;6.90;97.30;;;;;;4156599;28;20190;-73
2022/04/29 03:06:02;;;;;;;9.82;7.53;;;7.00;97.00;;;;;;4159480;28;20062;-73
2022/04/29 03:08:04;;;;;;;9.93;7.50;;;7.00;96.70;;;;;;4156598;28;20097;-72
2022/04/29 03:10:06;;;;;;;8.38;6.13;;;7.00;96.50;;;;;;4156935;28;20850;-73
2022/04/29 03:12:13;;;;;;;6.78;6.18;;;7.00;96.60;;;;;;4156837;28;20061;-73
2022/04/29 03:14:15;;;;;;;9.35;6.75;;;7.00;96.40;;;;;;4158965;28;20060;-73
2022/04/29 03:16:23;;;;;;;6.95;6.28;;;7.00;96.70;;;;;;4157312;28;20068;-73
2022/04/29 03:18:26;;;;;;;6.53;5.97;;;6.90;96.80;;;;;;4155858;28;20093;-72
2022/04/29 03:20:28;;;;;;;9.23;6.78;;;6.80;97.00;;;;;;4154650;28;20108;-72
2022/04/29 03:22:30;;;;;;;6.10;5.60;;;6.80;97.00;;;;;;4154268;28;20062;-72
2022/04/29 03:24:35;;;;;;;7.43;6.20;;;6.80;97.00;;;;;;4164758;28;20112;-72
2022/04/29 03:26:37;;;;;;;6.32;5.78;;;6.90;96.80;;;;;;4155668;28;20181;-72
2022/04/29 03:28:39;;;;;;;7.97;5.70;;;6.90;96.70;;;;;;4158215;28;20173;-72
2022/04/29 03:30:41;;;;;;;7.03;6.18;;;6.90;96.60;;;;;;4156780;28;20064;-73
2022/04/29 03:32:54;;;;;;;8.82;6.07;;;6.90;96.60;;;;;;4155566;28;20109;-72
2022/04/29 03:34:55;;;;;;;7.60;5.80;;;6.80;96.70;;;;;;4151940;28;20180;-72
2022/04/29 03:36:57;;;;;;;6.97;6.38;;;6.70;96.70;;;;;;4153752;28;20185;-72
2022/04/29 03:38:58;;;;;;;7.13;6.13;;;6.70;96.90;;;;;;4156725;28;20152;-72
2022/04/29 03:41:01;;;;;;;7.00;6.30;;;6.70;97.00;;;;;;4163771;28;20176;-72
2022/04/29 03:43:02;;;;;;;7.22;6.05;;;6.70;97.00;;;;;;4158479;28;20094;-72
2022/04/29 03:45:05;;;;;;;6.43;5.82;;;6.70;97.00;;;;;;4161788;28;20116;-72
2022/04/29 03:47:06;;;;;;;6.88;6.00;;;6.80;97.00;;;;;;4163782;28;20157;-78
2022/04/29 03:51:29;;;;;;;7.57;6.30;;;6.60;97.30;;;;;;4163476;28;20097;-72
2022/04/29 03:53:31;;;;;;;13.55;8.20;;;6.60;97.10;;;;;;4165030;28;20153;-72
2022/04/29 03:55:34;;;;;;;15.43;10.32;;;6.70;97.10;;;;;;4163419;28;20080;-72
2022/04/29 03:57:35;;;;;;;19.40;12.73;;;6.70;96.80;;;;;;4163154;28;20062;-72
2022/04/29 03:59:37;;;;;;;18.35;13.35;;;6.70;96.80;;;;;;4161234;28;20821;-72
2022/04/29 04:01:40;;;;;;;20.63;14.57;;;6.80;96.60;;;;;;4162286;28;20905;-72
2022/04/29 04:03:42;;;;;;;27.73;16.88;;;6.80;96.50;;;;;;4164426;28;20173;-73
2022/04/29 04:06:49;;;;;;;39.50;21.70;;;6.80;96.40;;;;;;4163739;28;20169;-73
2022/04/29 04:08:06;;;;;;;29.25;16.05;;;6.70;96.60;;;;;;4164119;28;20176;-72
2022/04/29 04:10:07;;;;;;;23.10;14.57;;;6.70;96.80;;;;;;4163347;28;20177;-72
2022/04/29 04:12:10;;;;;;;15.80;11.82;;;6.60;96.90;;;;;;4163836;28;20173;-72
2022/04/29 04:14:12;;;;;;;15.88;11.82;;;6.60;97.00;;;;;;4164305;28;20152;-72
2022/04/29 04:16:13;;;;;;;20.17;12.40;;;6.60;97.10;;;;;;4160621;28;20097;-72
2022/04/29 04:18:15;;;;;;;13.75;10.90;;;6.60;97.10;;;;;;4156017;28;20971;-72
2022/04/29 04:20:17;;;;;;;11.52;10.15;;;6.60;97.20;;;;;;4157651;28;20176;-72
2022/04/29 04:22:19;;;;;;;11.07;9.80;;;6.60;97.20;;;;;;4155908;28;20097;-72
2022/04/29 04:24:20;;;;;;;10.70;9.63;;;6.70;97.10;;;;;;4153260;28;20097;-72
2022/04/29 04:26:22;;;;;;;14.60;11.63;;;6.80;97.00;;;;;;4155540;28;20153;-72
2022/04/29 04:28:24;;;;;;;11.68;9.95;;;6.80;96.80;;;;;;4154754;28;20211;-72
2022/04/29 04:30:26;;;;;;;13.98;10.80;;;6.90;96.50;;;;;;4155647;28;20061;-72
2022/04/29 04:32:28;;;;;;;10.50;9.18;;;6.90;96.70;;;;;;4156749;28;20124;-72
2022/04/29 04:36:53;;;;;;;12.13;10.88;;;7.00;96.60;;;;;;4159210;28;20160;-72
2022/04/29 04:38:57;;;;;;;13.48;9.35;;;7.00;96.40;;;;;;4157316;28;20808;-71
2022/04/29 04:41:03;;;;;;;9.85;8.75;;;7.10;96.40;;;;;;4157957;28;20193;-73
2022/04/29 04:43:05;;;;;;;9.65;8.68;;;7.20;96.70;;;;;;4159065;28;20092;-72
2022/04/29 04:45:07;;;;;;;8.93;7.80;;;7.30;96.20;;;;;;4158527;28;20062;-72
2022/04/29 04:47:09;;;;;;;8.18;7.38;;;7.30;96.10;;;;;;4150828;28;20209;-72
2022/04/29 04:49:13;;;;;;;7.68;7.00;;;7.40;96.00;;;;;;4158499;28;20164;-75
2022/04/29 04:51:14;;;;;;;7.60;6.85;;;7.40;95.90;;;;;;4155819;28;20089;-72
2022/04/29 04:53:16;;;;;;;7.05;6.35;;;7.50;95.90;;;;;;4167458;22;20137;-73
2022/04/29 04:55:18;;;;;;;8.18;7.32;;;7.50;95.80;;;;;;4180936;28;20057;-73
2022/04/29 04:57:19;;;;;;;8.48;7.28;;;7.60;95.80;;;;;;4176528;28;20792;-73
2022/04/29 04:59:21;;;;;;;9.07;7.53;;;7.60;95.90;;;;;;4181197;28;20057;-73
2022/04/29 05:01:29;;;;;;;9.77;7.25;;;7.60;96.00;;;;;;4179295;28;20059;-73
2022/04/29 05:03:32;;;;;;;9.00;7.40;;;7.70;95.80;;;;;;4181624;28;20061;-73
2022/04/29 05:05:34;;;;;;;8.40;6.53;;;7.90;95.70;;;;;;4176460;28;20064;-73
2022/04/29 05:07:38;;;;;;;9.88;6.68;;;8.10;95.40;;;;;;4182175;28;20872;-74
2022/04/29 05:09:39;;;;;;;7.10;6.40;;;8.20;94.90;;;;;;4181106;28;20062;-74
2022/04/29 05:11:42;;;;;;;7.38;6.78;;;8.40;94.70;;;;;;4181439;28;20061;-79
2022/04/29 05:14:03;;;;;;;9.60;6.35;;;8.50;94.40;;;;;;4181099;28;20788;-75
2022/04/29 05:16:05;;;;;;;10.27;8.13;;;8.60;94.30;;;;;;4182345;28;20064;-74
2022/04/29 05:18:07;;;;;;;10.18;8.20;;;8.70;94.00;;;;;;4181083;28;20056;-74
2022/04/29 05:20:11;;;;;;;9.77;8.38;;;8.80;93.90;;;;;;4182567;28;21065;-75
2022/04/29 05:22:13;;;;;;;14.77;8.85;;;8.80;93.70;;;;;;4182608;28;20150;-74
2022/04/29 05:24:15;;;;;;;12.40;8.40;;;8.90;93.60;;;;;;4183094;28;20655;-76
2022/04/29 05:26:16;;;;;;;16.13;8.50;;;8.90;93.60;;;;;;4175401;28;20133;-75
2022/04/29 05:28:18;;;;;;;11.57;7.95;;;9.00;93.40;;;;;;4181533;28;20172;-75
2022/04/29 05:30:20;;;;;;;12.52;8.18;;;9.10;93.40;;;;;;4177844;28;20076;-75
2022/04/29 05:32:22;;;;;;;13.73;8.30;;;9.10;93.60;;;;;;4171999;28;20057;-75
2022/04/29 05:34:24;;;;;;;10.18;8.23;;;9.10;93.60;;;;;;4173590;28;20104;-74
2022/04/29 05:36:26;;;;;;;12.93;8.82;;;9.10;93.50;;;;;;4180740;28;20061;-74
2022/04/29 05:42:14;;;;;;;10.57;8.07;;;9.20;93.30;;;;;;4182071;28;20103;-74
2022/04/29 05:43:11;;;;;;;11.68;8.73;;;9.30;93.20;;;;;;4178036;28;20093;-75
2022/04/29 05:45:14;;;;;;;10.18;8.13;;;9.30;93.30;;;;;;4170113;28;20100;-75
2022/04/29 05:47:16;;;;;;;12.27;8.48;;;9.40;93.30;;;;;;4173312;28;20103;-74
2022/04/29 05:49:18;;;;;;;20.95;11.18;;;9.50;92.90;;;;;;4180231;28;20068;-74
2022/04/29 05:51:19;;;;;;;15.88;8.80;;;9.60;91.50;;;;;;4172514;28;20176;-74
2022/04/29 05:53:21;;;;;;;15.77;9.07;;;9.80;91.00;;;;;;4176995;28;20152;-75
2022/04/29 05:55:23;;;;;;;12.68;9.38;;;9.90;91.00;;;;;;4174713;28;20939;-74
2022/04/29 05:57:44;;;;;;;10.95;8.23;;;10.00;89.40;;;;;;4180449;28;20066;-75
2022/04/29 05:59:46;;;;;;;15.20;8.82;;;10.20;87.70;;;;;;4172570;28;20084;-74
2022/04/29 06:01:48;;;;;;;9.23;8.07;;;10.30;87.10;;;;;;4175701;28;20042;-74
2022/04/29 06:03:50;;;;;;;8.45;7.53;;;10.50;87.90;;;;;;4178496;28;21285;-75
2022/04/29 06:05:52;;;;;;;10.07;8.45;;;10.80;85.90;;;;;;4176381;28;20058;-75
2022/04/29 06:07:53;;;;;;;9.30;8.05;;;10.90;82.70;;;;;;4180871;28;20107;-74
2022/04/29 06:09:55;;;;;;;10.73;8.25;;;11.10;81.50;;;;;;4180261;28;20088;-74
2022/04/29 06:11:57;;;;;;;12.23;8.70;;;11.20;80.70;;;;;;4177194;28;20123;-74
2022/04/29 06:14:02;;;;;;;10.68;8.63;;;11.20;80.10;;;;;;4172830;28;20061;-75
2022/04/29 06:16:05;;;;;;;12.95;7.97;;;11.30;80.10;;;;;;4176932;28;20061;-75
2022/04/29 06:18:07;;;;;;;9.82;8.07;;;11.40;80.50;;;;;;4171594;28;20093;-74
2022/04/29 06:20:10;;;;;;;8.57;7.60;;;11.50;80.20;;;;;;4174329;28;20069;-74
2022/04/29 06:22:12;;;;;;;12.48;7.40;;;11.50;79.60;;;;;;4170761;28;20061;-75
2022/04/29 06:24:14;;;;;;;12.93;7.35;;;11.40;80.00;;;;;;4175986;28;20136;-75
2022/04/29 06:26:16;;;;;;;11.10;7.47;;;11.50;77.90;;;;;;4189014;28;20060;-75
2022/04/29 06:28:18;;;;;;;10.38;8.23;;;11.50;78.40;;;;;;4177867;28;20061;-75
2022/04/29 06:30:19;;;;;;;10.10;8.10;;;11.50;78.90;;;;;;4181252;28;20057;-75
2022/04/29 06:32:41;;;;;;;12.38;7.43;;;11.50;77.80;;;;;;4178463;28;20083;-75
2022/04/29 06:34:43;;;;;;;8.52;7.47;;;11.60;76.50;;;;;;4173854;28;20057;-75
2022/04/29 06:36:45;;;;;;;13.27;7.85;;;11.70;77.30;;;;;;4175641;28;20101;-74
2022/04/29 06:38:47;;;;;;;10.35;7.50;;;11.90;77.90;;;;;;4176330;28;20114;-75
2022/04/29 06:40:50;;;;;;;11.60;7.13;;;12.10;76.30;;;;;;4178993;28;20061;-75
2022/04/29 06:42:51;;;;;;;15.10;7.47;;;12.20;74.30;;;;;;4174502;28;20053;-74
2022/04/29 06:44:53;;;;;;;10.75;7.40;;;12.30;74.10;;;;;;4174552;28;20053;-74
2022/04/29 06:46:55;;;;;;;11.70;6.97;;;12.30;75.30;;;;;;4179064;28;20041;-73
2022/04/29 06:48:58;;;;;;;9.02;7.05;;;12.40;74.50;;;;;;4177073;28;20141;-75
2022/04/29 06:51:00;;;;;;;9.23;8.20;;;12.50;72.80;;;;;;4178465;28;20057;-75
2022/04/29 06:53:01;;;;;;;9.30;7.60;;;12.60;72.60;;;;;;4179703;28;20926;-73
2022/04/29 06:55:04;;;;;;;9.60;7.97;;;12.60;71.90;;;;;;4181237;28;20041;-74
2022/04/29 06:57:06;;;;;;;18.00;7.40;;;12.80;71.30;;;;;;4175069;28;20088;-74
2022/04/29 06:59:08;;;;;;;11.20;7.20;;;12.90;71.80;;;;;;4179931;28;20963;-74
2022/04/29 07:01:09;;;;;;;9.25;7.15;;;13.00;72.20;;;;;;4175152;28;20128;-74
2022/04/29 07:03:12;;;;;;;11.30;7.43;;;13.00;70.00;;;;;;4196330;28;20064;-75
2022/04/29 07:05:13;;;;;;;6.80;6.18;;;13.00;69.60;;;;;;4172884;28;20058;-76
2022/04/29 07:07:16;;;;;;;9.95;8.43;;;13.00;69.60;;;;;;4174095;28;20057;-75
2022/04/29 07:09:18;;;;;;;9.20;7.53;;;13.00;69.50;;;;;;4181032;28;20089;-74
2022/04/29 07:11:20;;;;;;;8.63;7.20;;;13.00;69.80;;;;;;4179022;28;20774;-75
2022/04/29 07:13:21;;;;;;;11.18;7.47;;;13.00;71.00;;;;;;4180784;28;20172;-74
2022/04/29 07:15:23;;;;;;;8.10;7.05;;;12.90;70.50;;;;;;4175095;28;20089;-75
2022/04/29 07:17:25;;;;;;;8.43;7.53;;;12.90;70.70;;;;;;4180739;28;20810;-75
2022/04/29 07:19:27;;;;;;;8.40;7.50;;;12.90;71.70;;;;;;4181098;28;20062;-75
2022/04/29 07:21:50;;;;;;;8.40;7.43;;;13.10;71.80;;;;;;4180750;28;20057;-75
2022/04/29 07:23:51;;;;;;;12.10;7.68;;;13.10;71.40;;;;;;4179696;28;20042;-75
2022/04/29 07:25:53;;;;;;;8.77;7.35;;;13.20;71.00;;;;;;4181886;28;20049;-75
2022/04/29 07:27:55;;;;;;;12.88;8.45;;;13.20;71.10;;;;;;4180097;28;20049;-75
2022/04/29 07:29:57;;;;;;;9.15;7.45;;;13.10;70.80;;;;;;4173345;28;20058;-75
2022/04/29 07:31:58;;;;;;;7.82;7.07;;;13.20;71.10;;;;;;4181143;28;20084;-76
2022/04/29 07:34:00;;;;;;;9.60;7.70;;;13.30;71.00;;;;;;4180634;28;20067;-74
2022/04/29 07:43:15;;;;;;;10.27;7.90;;;13.80;70.50;;;;;;4182640;28;20769;-74
2022/04/29 07:45:17;;;;;;;9.70;7.50;;;13.80;66.60;;;;;;4181011;28;20072;-74
2022/04/29 07:47:19;;;;;;;11.88;7.50;;;13.70;67.70;;;;;;4180913;28;20061;-75
2022/04/29 07:49:21;;;;;;;8.10;6.80;;;13.90;67.00;;;;;;4180899;28;20127;-75
2022/04/29 07:51:23;;;;;;;7.72;6.93;;;14.00;67.50;;;;;;4179534;28;20057;-75
2022/04/29 07:53:24;;;;;;;11.32;6.60;;;14.20;67.30;;;;;;4183140;28;20049;-75
2022/04/29 07:55:26;;;;;;;10.80;7.15;;;14.30;66.20;;;;;;4181561;28;20065;-76
2022/04/29 07:57:28;;;;;;;8.27;6.30;;;14.40;67.60;;;;;;4183806;28;20104;-74
2022/04/29 07:59:30;;;;;;;8.10;6.50;;;14.50;64.10;;;;;;4180937;28;20061;-74
2022/04/29 08:01:34;;;;;;;6.95;6.20;;;14.40;63.20;;;;;;4183877;28;20057;-74
2022/04/29 08:03:37;;;;;;;13.88;6.95;;;14.40;63.70;;;;;;4183510;28;20104;-74
2022/04/29 08:05:39;;;;;;;7.68;6.72;;;14.30;65.30;;;;;;4182289;28;20064;-75
2022/04/29 08:07:42;;;;;;;7.20;5.95;;;14.20;64.50;;;;;;4183638;28;20890;-76
2022/04/29 08:09:43;;;;;;;6.93;6.22;;;14.20;65.80;;;;;;4176431;28;20093;-75
2022/04/29 08:11:47;;;;;;;8.70;6.95;;;14.10;66.20;;;;;;4179618;28;20061;-76
2022/04/29 08:13:48;;;;;;;9.15;7.32;;;14.10;65.50;;;;;;4182128;28;20053;-76
2022/04/29 08:16:11;;;;;;;9.40;7.18;;;14.00;66.00;;;;;;4177134;28;20053;-76
2022/04/29 08:18:13;;;;;;;10.93;7.13;;;14.10;64.80;;;;;;4183743;28;20065;-76
2022/04/29 08:20:15;;;;;;;8.07;6.50;;;14.10;64.80;;;;;;4183886;28;20841;-76
2022/04/29 08:22:17;;;;;;;8.98;6.70;;;14.10;65.40;;;;;;4183650;28;20049;-76
2022/04/29 08:24:19;;;;;;;10.13;6.32;;;14.00;65.10;;;;;;4183628;28;20883;-75
2022/04/29 08:26:21;;;;;;;8.70;6.15;;;14.10;63.10;;;;;;4181635;28;20053;-75
2022/04/29 08:28:23;;;;;;;7.53;6.25;;;14.10;63.20;;;;;;4178342;28;20080;-75
2022/04/29 08:30:25;;;;;;;7.72;6.60;;;14.10;62.90;;;;;;4171642;28;20128;-74
2022/04/29 08:32:26;;;;;;;9.68;7.07;;;14.20;61.10;;;;;;4175551;28;20054;-73
2022/04/29 08:34:28;;;;;;;7.88;6.47;;;14.40;60.40;;;;;;4177529;28;20124;-74
2022/04/29 08:36:30;;;;;;;9.25;6.95;;;14.50;60.60;;;;;;4178075;28;20165;-74
2022/04/29 08:38:32;;;;;;;9.65;6.57;;;14.60;60.20;;;;;;4178217;28;20836;-76
2022/04/29 08:40:41;;;;;;;11.30;6.82;;;14.70;59.00;;;;;;4181229;28;20111;-74
2022/04/29 08:42:43;;;;;;;10.90;6.63;;;14.80;59.10;;;;;;4177975;28;20096;-74
2022/04/29 08:44:46;;;;;;;8.75;6.03;;;14.80;58.80;;;;;;4174290;28;20096;-74
2022/04/29 08:46:48;;;;;;;7.45;5.78;;;14.90;58.00;;;;;;4178868;28;21092;-76
2022/04/29 08:48:51;;;;;;;10.98;6.63;;;15.00;58.20;;;;;;4174870;28;20096;-74
2022/04/29 08:50:53;;;;;;;7.20;5.20;;;15.10;58.90;;;;;;4171012;28;20054;-76
2022/04/29 08:52:54;;;;;;;6.65;5.20;;;15.30;57.90;;;;;;4175965;28;20176;-75
2022/04/29 08:59:40;;;;;;;7.15;4.57;;;15.70;56.90;;;;;;4178453;28;20057;-75
2022/04/29 09:01:43;;;;;;;10.05;5.22;;;15.90;56.50;;;;;;4180789;28;20065;-75
2022/04/29 09:03:46;;;;;;;9.45;6.22;;;15.90;55.70;;;;;;4176552;28;20061;-75
2022/04/29 09:05:49;;;;;;;7.10;5.18;;;15.90;56.40;;;;;;4178663;28;20058;-74
2022/04/29 09:08:01;;;;;;;5.03;4.57;;;16.00;54.90;;;;;;4176832;28;20093;-75
2022/04/29 09:10:04;;;;;;;4.97;4.47;;;16.10;53.20;;;;;;4176933;28;20889;-75
2022/04/29 09:12:16;;;;;;;5.88;3.95;;;16.00;53.10;;;;;;4177763;28;20085;-74
2022/04/29 09:14:19;;;;;;;4.13;3.78;;;16.00;53.10;;;;;;4175430;28;20100;-75
2022/04/29 09:16:21;;;;;;;4.97;4.53;;;16.20;54.90;;;;;;4175677;28;20083;-75
2022/04/29 09:18:43;;;;;;;5.30;4.80;;;16.30;52.20;;;;;;4174516;28;20176;-75
2022/04/29 09:20:51;;;;;;;8.23;4.55;;;16.30;53.70;;;;;;4177731;28;20770;-76
2022/04/29 09:22:53;;;;;;;4.47;3.47;;;16.50;51.80;;;;;;4181111;28;20152;-74
2022/04/29 09:25:00;;;;;;;4.05;3.75;;;16.50;50.60;;;;;;4182643;28;20050;-75
2022/04/29 09:27:04;;;;;;;6.07;4.38;;;16.40;50.70;;;;;;4179524;28;20053;-76
2022/04/29 09:29:10;;;;;;;4.53;4.10;;;16.50;50.90;;;;;;4181211;28;20061;-75
2022/04/29 09:31:14;;;;;;;6.20;4.47;;;16.20;51.90;;;;;;4173842;28;20060;-74
2022/04/29 09:33:22;;;;;;;5.30;4.82;;;16.10;52.10;;;;;;4180914;28;20084;-75
2022/04/29 09:35:37;;;;;;;4.57;3.65;;;16.20;52.90;;;;;;4171024;28;20054;-75
2022/04/29 09:39:26;;;;;;;3.55;3.28;;;16.30;51.60;;;;;;4171997;28;20101;-74
2022/04/29 09:40:05;;;;;;;4.22;3.83;;;16.40;50.40;;;;;;4175158;28;20899;-74
2022/04/29 09:42:08;;;;;;;4.72;3.88;;;16.50;50.90;;;;;;4178012;28;20200;-74
2022/04/29 09:44:35;;;;;;;4.50;3.72;;;16.60;50.40;;;;;;4170343;28;20057;-73
2022/04/29 09:46:38;;;;;;;5.53;4.30;;;16.80;50.70;;;;;;4176152;28;20780;-73
2022/04/29 09:49:06;;;;;;;4.03;3.67;;;16.90;50.80;;;;;;4169186;28;20053;-73
2022/04/29 09:51:08;;;;;;;4.30;3.90;;;16.90;51.00;;;;;;4176742;28;20081;-73
2022/04/29 09:53:25;;;;;;;5.75;4.28;;;16.80;51.00;;;;;;4169941;28;21202;-74
2022/04/29 09:55:28;;;;;;;9.38;4.43;;;16.80;51.00;;;;;;4175113;28;20148;-74
2022/04/29 09:57:30;;;;;;;5.03;3.53;;;16.80;50.30;;;;;;4179714;28;20135;-74
2022/04/29 09:59:42;;;;;;;6.43;3.63;;;16.90;51.10;;;;;;4180308;28;20108;-75
2022/04/29 10:01:44;;;;;;;4.13;3.65;;;17.00;49.90;;;;;;4174368;28;20917;-74
2022/04/29 10:03:46;;;;;;;6.32;3.53;;;17.10;49.80;;;;;;4176758;28;20886;-74
2022/04/29 10:05:51;;;;;;;4.60;4.07;;;17.30;51.00;;;;;;4178178;28;20068;-74
2022/04/29 10:07:55;;;;;;;6.15;4.00;;;17.40;50.80;;;;;;4177295;28;20057;-73
2022/04/29 10:09:59;;;;;;;3.83;3.53;;;17.60;51.00;;;;;;4174383;28;20069;-73
2022/04/29 10:12:03;;;;;;;5.25;4.28;;;17.70;50.60;;;;;;4172258;28;20062;-74
2022/04/29 10:14:07;;;;;;;4.55;4.15;;;17.60;49.60;;;;;;4172029;28;20093;-73
2022/04/29 10:16:11;;;;;;;3.80;3.33;;;17.40;48.20;;;;;;4174452;28;20112;-74
2022/04/29 10:23:11;;;;;;;3.70;2.97;;;17.00;50.30;;;;;;4178012;28;20062;-73
2022/04/29 10:25:13;;;;;;;5.40;3.50;;;17.00;50.90;;;;;;4171676;28;20162;-73
2022/04/29 10:27:15;;;;;;;4.07;3.22;;;17.00;51.50;;;;;;4171298;28;20901;-74
2022/04/29 10:29:17;;;;;;;3.30;3.00;;;17.10;51.30;;;;;;4174784;28;20088;-74
2022/04/29 10:31:22;;;;;;;3.60;3.30;;;17.20;52.50;;;;;;4177223;28;20057;-74
2022/04/29 10:33:24;;;;;;;3.65;3.35;;;17.30;51.50;;;;;;4175250;28;20056;-74
2022/04/29 10:35:42;;;;;;;4.32;2.70;;;17.30;48.40;;;;;;4173583;28;20061;-73
2022/04/29 10:37:44;;;;;;;5.45;3.20;;;17.20;49.50;;;;;;4172960;28;20863;-73
2022/04/29 10:40:08;;;;;;;10.32;3.17;;;17.30;52.40;;;;;;4172144;28;20053;-73
2022/04/29 10:42:18;;;;;;;3.35;2.67;;;17.20;48.80;;;;;;4176289;28;20155;-74
2022/04/29 10:44:20;;;;;;;4.80;2.92;;;17.10;48.10;;;;;;4175588;28;20049;-74
2022/04/29 10:46:23;;;;;;;2.55;2.35;;;16.80;48.50;;;;;;4169863;28;20065;-74
2022/04/29 10:48:35;;;;;;;2.72;2.53;;;16.90;50.80;;;;;;4175411;28;20639;-73
2022/04/29 10:50:37;;;;;;;2.92;2.40;;;17.00;49.60;;;;;;4169801;28;20057;-73
2022/04/29 10:52:39;;;;;;;3.40;3.10;;;17.20;50.20;;;;;;4166959;28;20098;-73
2022/04/29 10:54:41;;;;;;;5.35;2.97;;;17.40;48.40;;;;;;4186923;22;20084;-73
2022/04/29 10:56:44;;;;;;;2.25;2.15;;;17.40;50.60;;;;;;4165393;28;20136;-74
2022/04/29 10:58:46;;;;;;;4.78;2.53;;;17.50;49.00;;;;;;4170233;28;20062;-73
2022/04/29 11:00:55;;;;;;;2.88;2.63;;;17.50;47.80;;;;;;4174124;28;20255;-74
2022/04/29 11:03:38;;;;;;;4.05;2.70;;;17.60;48.40;;;;;;4173394;28;20061;-73
2022/04/29 11:05:40;;;;;;;3.53;2.45;;;17.60;46.40;;;;;;4161370;28;20058;-74
2022/04/29 11:07:45;;;;;;;4.43;2.42;;;17.60;46.50;;;;;;4159910;28;20069;-74